Insider Stock Trading History of Landon Martin J


The following table details the trading activities (stock purchases, stock sales, and stock option exercises) reported to the Securities and Exchange Commission (SEC) by insider Landon Martin J since year 2005. The trader's CIK number is 1279060. At the time of this reporting, Landon Martin J is the Exec Vice President of Kinetic Concepts Inc /tx/ . (stock ticker symbol KCI). See this page for all insider trading activities at Kinetic Concepts Inc /tx/ .


Stock purchases, sales, and option exercises reported by insider Landon Martin J since 2005.
  Trade Date   Symbol Company Name (Issuer) Trade Type     Shares       Price ($)   Value ($)
2010-02-01 KCI Kinetic Concepts Inc /tx/ Option Ex 50,000 10.00 500,000
2010-02-01 KCI Kinetic Concepts Inc /tx/ Sale 36,000 41.18 1,482,480
2009-11-20 KCI Kinetic Concepts Inc /tx/ Option Ex 60,000 10.00 600,000
2009-11-20 KCI Kinetic Concepts Inc /tx/ Sale 35,000 33.13 1,159,550
2009-09-09 KCI Kinetic Concepts Inc /tx/ Option Ex 20,000 10.00 200,000
2009-09-09 KCI Kinetic Concepts Inc /tx/ Sale 20,000 35.00 700,000
2009-07-22 KCI Kinetic Concepts Inc /tx/ Sale 20,000 30.00 600,000
2009-07-22 KCI Kinetic Concepts Inc /tx/ Option Ex 20,000 10.00 200,000
2009-06-02 KCI Kinetic Concepts Inc /tx/ Sale 10,000 27.00 270,000
2009-06-02 KCI Kinetic Concepts Inc /tx/ Option Ex 10,000 10.00 100,000
2009-04-30 KCI Kinetic Concepts Inc /tx/ Option Ex 20,000 7.00 140,000
2009-04-30 KCI Kinetic Concepts Inc /tx/ Sale 20,000 24.28 485,600
2007-10-04 KCI Kinetic Concepts Inc /tx/ Option Ex 10,000 10.00 100,000
2007-10-04 KCI Kinetic Concepts Inc /tx/ Sale 10,000 60.00 600,000
2007-09-28 KCI Kinetic Concepts Inc /tx/ Option Ex 10,000 10.00 100,000
2007-09-28 KCI Kinetic Concepts Inc /tx/ Sale 10,000 56.14 561,400
2007-05-21 KCI Kinetic Concepts Inc /tx/ Option Ex 50,000 10.00 500,000
2007-05-21 KCI Kinetic Concepts Inc /tx/ Sale 50,000 49.18 2,459,000
2007-02-28 KCI Kinetic Concepts Inc /tx/ Sale 200 49.75 9,950
2007-02-05 KCI Kinetic Concepts Inc /tx/ Option Ex 30,000 8.50 255,000
2007-02-05 KCI Kinetic Concepts Inc /tx/ Sale 30,000 49.11 1,473,300
2006-12-04 KCI Kinetic Concepts Inc /tx/ Option Ex 20,000 10.00 200,000
2006-12-04 KCI Kinetic Concepts Inc /tx/ Sale 20,000 37.00 740,000
2006-11-01 KCI Kinetic Concepts Inc /tx/ Sale 30,000 34.58 1,037,400
2006-11-01 KCI Kinetic Concepts Inc /tx/ Option Ex 30,000 10.00 300,000
2006-05-09 KCI Kinetic Concepts Inc /tx/ Sale 10,000 41.67 416,700
2006-05-09 KCI Kinetic Concepts Inc /tx/ Option Ex 10,000 7.00 70,000
2006-05-10 KCI Kinetic Concepts Inc /tx/ Option Ex 10,000 10.00 100,000
2006-02-27 KCI Kinetic Concepts Inc /tx/ Option Ex 4,000 4.81 19,240
2006-02-28 KCI Kinetic Concepts Inc /tx/ Option Ex 30,000 7.00 210,000
2006-02-27 KCI Kinetic Concepts Inc /tx/ Sale 4,000 38.00 152,000

Insider trading activities including stock purchases, stock sales, and option exercises listed in the above table cannot be completely guaranteed as to their accuracy. For more information regarding the trades made by Landon Martin J (Exec Vice President of Kinetic Concepts Inc /tx/ at the time of this reporting) see the Securities and Exchange Commission (SEC) website.